sensor_id;sensor_type;location;lat;lon;timestamp;P1;durP1;ratioP1;P2;durP2;ratioP2
4885;SDS011;2457;51.788;6.136;2022-09-12T00:00:13;10.23;;;6.10;;
4885;SDS011;2457;51.788;6.136;2022-09-12T00:02:41;8.97;;;4.80;;
4885;SDS011;2457;51.788;6.136;2022-09-12T00:05:08;15.93;;;6.57;;
4885;SDS011;2457;51.788;6.136;2022-09-12T00:07:35;16.33;;;6.50;;
4885;SDS011;2457;51.788;6.136;2022-09-12T00:10:02;11.20;;;6.50;;
4885;SDS011;2457;51.788;6.136;2022-09-12T00:12:30;10.80;;;7.13;;
4885;SDS011;2457;51.788;6.136;2022-09-12T00:14:57;11.00;;;6.20;;
4885;SDS011;2457;51.788;6.136;2022-09-12T00:17:25;10.80;;;6.80;;
4885;SDS011;2457;51.788;6.136;2022-09-12T00:19:52;13.03;;;6.60;;
4885;SDS011;2457;51.788;6.136;2022-09-12T00:22:21;13.40;;;7.23;;
4885;SDS011;2457;51.788;6.136;2022-09-12T00:24:48;11.40;;;7.23;;
4885;SDS011;2457;51.788;6.136;2022-09-12T00:27:15;12.20;;;7.43;;
4885;SDS011;2457;51.788;6.136;2022-09-12T00:29:42;12.20;;;6.60;;
4885;SDS011;2457;51.788;6.136;2022-09-12T00:32:10;10.77;;;7.20;;
4885;SDS011;2457;51.788;6.136;2022-09-12T00:34:37;12.00;;;7.70;;
4885;SDS011;2457;51.788;6.136;2022-09-12T00:37:04;11.17;;;7.00;;
4885;SDS011;2457;51.788;6.136;2022-09-12T00:39:32;11.27;;;7.17;;
4885;SDS011;2457;51.788;6.136;2022-09-12T00:41:59;13.23;;;7.80;;
4885;SDS011;2457;51.788;6.136;2022-09-12T00:46:59;13.33;;;8.30;;
4885;SDS011;2457;51.788;6.136;2022-09-12T00:52:02;12.80;;;7.70;;
4885;SDS011;2457;51.788;6.136;2022-09-12T00:54:26;14.70;;;9.00;;
4885;SDS011;2457;51.788;6.136;2022-09-12T00:56:54;15.00;;;8.30;;
4885;SDS011;2457;51.788;6.136;2022-09-12T00:59:28;14.13;;;8.17;;
4885;SDS011;2457;51.788;6.136;2022-09-12T01:01:56;13.03;;;7.40;;
4885;SDS011;2457;51.788;6.136;2022-09-12T01:04:25;13.90;;;8.83;;
4885;SDS011;2457;51.788;6.136;2022-09-12T01:06:53;13.90;;;7.93;;
4885;SDS011;2457;51.788;6.136;2022-09-12T01:09:22;16.87;;;8.17;;
4885;SDS011;2457;51.788;6.136;2022-09-12T01:11:50;15.40;;;8.53;;
4885;SDS011;2457;51.788;6.136;2022-09-12T01:14:18;15.30;;;8.60;;
4885;SDS011;2457;51.788;6.136;2022-09-12T01:16:46;14.03;;;8.17;;
4885;SDS011;2457;51.788;6.136;2022-09-12T01:22:14;16.53;;;8.03;;
4885;SDS011;2457;51.788;6.136;2022-09-12T01:27:18;15.23;;;8.07;;
4885;SDS011;2457;51.788;6.136;2022-09-12T01:29:41;15.60;;;8.57;;
4885;SDS011;2457;51.788;6.136;2022-09-12T01:32:09;19.07;;;8.20;;
4885;SDS011;2457;51.788;6.136;2022-09-12T01:34:44;19.07;;;10.20;;
4885;SDS011;2457;51.788;6.136;2022-09-12T01:40:02;22.63;;;9.53;;
4885;SDS011;2457;51.788;6.136;2022-09-12T01:42:40;18.93;;;9.63;;
4885;SDS011;2457;51.788;6.136;2022-09-12T01:45:17;20.20;;;11.27;;
4885;SDS011;2457;51.788;6.136;2022-09-12T01:47:49;19.20;;;10.30;;
4885;SDS011;2457;51.788;6.136;2022-09-12T01:50:21;15.40;;;9.60;;
4885;SDS011;2457;51.788;6.136;2022-09-12T01:52:54;18.60;;;10.10;;
4885;SDS011;2457;51.788;6.136;2022-09-12T01:55:23;17.50;;;10.07;;
4885;SDS011;2457;51.788;6.136;2022-09-12T01:57:53;18.80;;;10.40;;
4885;SDS011;2457;51.788;6.136;2022-09-12T02:00:20;15.27;;;10.20;;
4885;SDS011;2457;51.788;6.136;2022-09-12T02:03:01;18.27;;;10.17;;
4885;SDS011;2457;51.788;6.136;2022-09-12T02:05:38;25.13;;;10.80;;
4885;SDS011;2457;51.788;6.136;2022-09-12T02:08:02;21.07;;;11.13;;
4885;SDS011;2457;51.788;6.136;2022-09-12T02:10:30;22.33;;;10.43;;
4885;SDS011;2457;51.788;6.136;2022-09-12T02:15:42;24.43;;;11.37;;
4885;SDS011;2457;51.788;6.136;2022-09-12T02:18:15;22.10;;;10.97;;
4885;SDS011;2457;51.788;6.136;2022-09-12T02:20:40;17.73;;;10.27;;
4885;SDS011;2457;51.788;6.136;2022-09-12T02:23:08;20.60;;;10.27;;
4885;SDS011;2457;51.788;6.136;2022-09-12T02:25:37;20.53;;;10.47;;
4885;SDS011;2457;51.788;6.136;2022-09-12T02:28:09;20.37;;;11.60;;
4885;SDS011;2457;51.788;6.136;2022-09-12T02:30:38;20.50;;;12.10;;
4885;SDS011;2457;51.788;6.136;2022-09-12T02:33:06;19.27;;;11.87;;
4885;SDS011;2457;51.788;6.136;2022-09-12T02:35:36;24.33;;;11.70;;
4885;SDS011;2457;51.788;6.136;2022-09-12T02:38:04;19.03;;;10.70;;
4885;SDS011;2457;51.788;6.136;2022-09-12T02:40:31;21.63;;;11.97;;
4885;SDS011;2457;51.788;6.136;2022-09-12T02:42:59;20.00;;;10.83;;
4885;SDS011;2457;51.788;6.136;2022-09-12T02:45:27;20.27;;;11.60;;
4885;SDS011;2457;51.788;6.136;2022-09-12T02:47:56;24.37;;;11.43;;
4885;SDS011;2457;51.788;6.136;2022-09-12T02:50:23;22.73;;;12.43;;
4885;SDS011;2457;51.788;6.136;2022-09-12T02:52:51;23.53;;;12.00;;
4885;SDS011;2457;51.788;6.136;2022-09-12T02:55:20;24.17;;;12.50;;
4885;SDS011;2457;51.788;6.136;2022-09-12T02:57:49;23.50;;;12.10;;
4885;SDS011;2457;51.788;6.136;2022-09-12T03:00:17;22.73;;;11.63;;
4885;SDS011;2457;51.788;6.136;2022-09-12T03:05:34;24.90;;;12.57;;
4885;SDS011;2457;51.788;6.136;2022-09-12T03:13:59;26.33;;;13.87;;
4885;SDS011;2457;51.788;6.136;2022-09-12T03:21:01;26.60;;;12.80;;
4885;SDS011;2457;51.788;6.136;2022-09-12T03:23:36;24.77;;;13.30;;
4885;SDS011;2457;51.788;6.136;2022-09-12T03:26:06;22.63;;;12.57;;
4885;SDS011;2457;51.788;6.136;2022-09-12T03:28:34;30.10;;;14.30;;
4885;SDS011;2457;51.788;6.136;2022-09-12T03:31:10;24.17;;;12.97;;
4885;SDS011;2457;51.788;6.136;2022-09-12T03:33:30;26.17;;;13.60;;
4885;SDS011;2457;51.788;6.136;2022-09-12T03:35:57;23.73;;;12.97;;
4885;SDS011;2457;51.788;6.136;2022-09-12T03:38:24;26.07;;;13.50;;
4885;SDS011;2457;51.788;6.136;2022-09-12T03:40:52;27.07;;;14.20;;
4885;SDS011;2457;51.788;6.136;2022-09-12T03:43:19;24.70;;;13.23;;
4885;SDS011;2457;51.788;6.136;2022-09-12T03:45:49;27.77;;;13.80;;
4885;SDS011;2457;51.788;6.136;2022-09-12T03:48:16;28.00;;;14.53;;
4885;SDS011;2457;51.788;6.136;2022-09-12T03:50:43;23.03;;;12.70;;
4885;SDS011;2457;51.788;6.136;2022-09-12T03:53:10;28.87;;;14.13;;
4885;SDS011;2457;51.788;6.136;2022-09-12T03:55:38;28.20;;;13.70;;
4885;SDS011;2457;51.788;6.136;2022-09-12T03:58:05;29.10;;;14.30;;
4885;SDS011;2457;51.788;6.136;2022-09-12T04:00:32;26.97;;;14.20;;
4885;SDS011;2457;51.788;6.136;2022-09-12T04:02:59;32.07;;;16.53;;
4885;SDS011;2457;51.788;6.136;2022-09-12T04:05:27;30.37;;;14.97;;
4885;SDS011;2457;51.788;6.136;2022-09-12T04:07:54;28.17;;;14.57;;
4885;SDS011;2457;51.788;6.136;2022-09-12T04:10:21;26.20;;;14.17;;
4885;SDS011;2457;51.788;6.136;2022-09-12T04:12:49;33.43;;;15.37;;
4885;SDS011;2457;51.788;6.136;2022-09-12T04:15:16;31.00;;;15.57;;
4885;SDS011;2457;51.788;6.136;2022-09-12T04:17:43;28.57;;;14.80;;
4885;SDS011;2457;51.788;6.136;2022-09-12T04:20:10;26.33;;;13.53;;
4885;SDS011;2457;51.788;6.136;2022-09-12T04:22:38;31.77;;;15.03;;
4885;SDS011;2457;51.788;6.136;2022-09-12T04:25:05;31.50;;;14.77;;
4885;SDS011;2457;51.788;6.136;2022-09-12T04:27:33;24.27;;;13.30;;
4885;SDS011;2457;51.788;6.136;2022-09-12T04:30:00;28.23;;;13.67;;
4885;SDS011;2457;51.788;6.136;2022-09-12T04:32:28;29.40;;;15.67;;
4885;SDS011;2457;51.788;6.136;2022-09-12T04:34:56;29.67;;;13.83;;
4885;SDS011;2457;51.788;6.136;2022-09-12T04:37:24;29.20;;;14.63;;
4885;SDS011;2457;51.788;6.136;2022-09-12T04:39:51;34.30;;;15.63;;
4885;SDS011;2457;51.788;6.136;2022-09-12T04:42:20;27.40;;;14.57;;
4885;SDS011;2457;51.788;6.136;2022-09-12T04:44:47;27.63;;;13.43;;
4885;SDS011;2457;51.788;6.136;2022-09-12T04:47:14;25.17;;;13.40;;
4885;SDS011;2457;51.788;6.136;2022-09-12T04:49:42;30.20;;;14.00;;
4885;SDS011;2457;51.788;6.136;2022-09-12T04:52:09;29.47;;;15.50;;
4885;SDS011;2457;51.788;6.136;2022-09-12T04:54:36;26.77;;;14.13;;
4885;SDS011;2457;51.788;6.136;2022-09-12T04:57:04;30.07;;;14.53;;
4885;SDS011;2457;51.788;6.136;2022-09-12T04:59:31;25.30;;;13.17;;
4885;SDS011;2457;51.788;6.136;2022-09-12T05:01:58;29.80;;;15.10;;
4885;SDS011;2457;51.788;6.136;2022-09-12T05:04:25;33.03;;;15.13;;
4885;SDS011;2457;51.788;6.136;2022-09-12T05:06:53;31.53;;;14.33;;
4885;SDS011;2457;51.788;6.136;2022-09-12T05:09:20;27.60;;;13.20;;
4885;SDS011;2457;51.788;6.136;2022-09-12T05:11:47;33.97;;;14.57;;
4885;SDS011;2457;51.788;6.136;2022-09-12T05:14:14;35.70;;;14.87;;
4885;SDS011;2457;51.788;6.136;2022-09-12T05:16:42;28.43;;;12.80;;
4885;SDS011;2457;51.788;6.136;2022-09-12T05:19:09;30.37;;;14.80;;
4885;SDS011;2457;51.788;6.136;2022-09-12T05:21:37;29.43;;;14.00;;
4885;SDS011;2457;51.788;6.136;2022-09-12T05:24:04;29.93;;;15.20;;
4885;SDS011;2457;51.788;6.136;2022-09-12T05:26:31;37.77;;;15.30;;
4885;SDS011;2457;51.788;6.136;2022-09-12T05:28:59;27.53;;;13.60;;
4885;SDS011;2457;51.788;6.136;2022-09-12T05:31:26;28.03;;;14.03;;
4885;SDS011;2457;51.788;6.136;2022-09-12T05:33:54;31.10;;;13.53;;
4885;SDS011;2457;51.788;6.136;2022-09-12T05:36:23;29.13;;;13.17;;
4885;SDS011;2457;51.788;6.136;2022-09-12T05:38:51;31.43;;;14.63;;
4885;SDS011;2457;51.788;6.136;2022-09-12T05:41:19;25.03;;;13.20;;
4885;SDS011;2457;51.788;6.136;2022-09-12T05:43:50;21.87;;;12.50;;
4885;SDS011;2457;51.788;6.136;2022-09-12T05:46:17;39.13;;;14.57;;
4885;SDS011;2457;51.788;6.136;2022-09-12T05:48:45;25.03;;;12.97;;
4885;SDS011;2457;51.788;6.136;2022-09-12T05:51:14;27.17;;;13.90;;
4885;SDS011;2457;51.788;6.136;2022-09-12T05:53:43;24.37;;;13.07;;
4885;SDS011;2457;51.788;6.136;2022-09-12T05:56:12;29.27;;;14.50;;
4885;SDS011;2457;51.788;6.136;2022-09-12T05:58:41;24.27;;;11.23;;
4885;SDS011;2457;51.788;6.136;2022-09-12T06:01:09;28.00;;;12.43;;
4885;SDS011;2457;51.788;6.136;2022-09-12T06:03:47;24.57;;;12.70;;
4885;SDS011;2457;51.788;6.136;2022-09-12T06:06:15;34.80;;;14.33;;
4885;SDS011;2457;51.788;6.136;2022-09-12T06:08:44;31.10;;;13.20;;
4885;SDS011;2457;51.788;6.136;2022-09-12T06:11:12;26.80;;;13.50;;
4885;SDS011;2457;51.788;6.136;2022-09-12T06:13:40;33.00;;;13.20;;
4885;SDS011;2457;51.788;6.136;2022-09-12T06:16:08;34.50;;;14.10;;
4885;SDS011;2457;51.788;6.136;2022-09-12T06:18:36;27.10;;;13.67;;
4885;SDS011;2457;51.788;6.136;2022-09-12T06:21:08;30.07;;;12.73;;
4885;SDS011;2457;51.788;6.136;2022-09-12T06:23:35;29.30;;;13.30;;
4885;SDS011;2457;51.788;6.136;2022-09-12T06:26:04;28.67;;;13.10;;
4885;SDS011;2457;51.788;6.136;2022-09-12T06:28:33;26.87;;;13.30;;
4885;SDS011;2457;51.788;6.136;2022-09-12T06:31:06;23.73;;;12.30;;
4885;SDS011;2457;51.788;6.136;2022-09-12T06:33:30;27.90;;;12.70;;
4885;SDS011;2457;51.788;6.136;2022-09-12T06:36:02;25.63;;;11.80;;
4885;SDS011;2457;51.788;6.136;2022-09-12T06:38:30;26.33;;;12.33;;
4885;SDS011;2457;51.788;6.136;2022-09-12T06:40:57;28.93;;;13.10;;
4885;SDS011;2457;51.788;6.136;2022-09-12T06:43:26;22.33;;;11.73;;
4885;SDS011;2457;51.788;6.136;2022-09-12T06:45:54;24.07;;;11.47;;
4885;SDS011;2457;51.788;6.136;2022-09-12T06:48:22;25.75;;;11.40;;
4885;SDS011;2457;51.788;6.136;2022-09-12T06:50:56;26.40;;;13.17;;
4885;SDS011;2457;51.788;6.136;2022-09-12T06:53:24;20.57;;;11.20;;
4885;SDS011;2457;51.788;6.136;2022-09-12T06:55:55;22.90;;;11.50;;
4885;SDS011;2457;51.788;6.136;2022-09-12T06:58:23;23.93;;;12.27;;
4885;SDS011;2457;51.788;6.136;2022-09-12T07:00:51;25.17;;;11.97;;
4885;SDS011;2457;51.788;6.136;2022-09-12T07:03:18;25.57;;;10.97;;
4885;SDS011;2457;51.788;6.136;2022-09-12T07:05:45;27.30;;;12.00;;
4885;SDS011;2457;51.788;6.136;2022-09-12T07:08:12;24.00;;;11.50;;
4885;SDS011;2457;51.788;6.136;2022-09-12T07:10:40;24.30;;;10.75;;
4885;SDS011;2457;51.788;6.136;2022-09-12T07:13:07;22.83;;;12.23;;
4885;SDS011;2457;51.788;6.136;2022-09-12T07:15:34;21.00;;;10.87;;
4885;SDS011;2457;51.788;6.136;2022-09-12T07:18:02;22.67;;;11.30;;
4885;SDS011;2457;51.788;6.136;2022-09-12T07:20:29;22.73;;;11.87;;
4885;SDS011;2457;51.788;6.136;2022-09-12T07:22:58;28.33;;;12.53;;
4885;SDS011;2457;51.788;6.136;2022-09-12T07:25:25;25.20;;;12.53;;
4885;SDS011;2457;51.788;6.136;2022-09-12T07:27:53;20.40;;;10.67;;
4885;SDS011;2457;51.788;6.136;2022-09-12T07:30:20;26.47;;;12.50;;
4885;SDS011;2457;51.788;6.136;2022-09-12T07:32:51;26.80;;;12.37;;
4885;SDS011;2457;51.788;6.136;2022-09-12T07:35:19;29.67;;;13.97;;
4885;SDS011;2457;51.788;6.136;2022-09-12T07:37:47;24.37;;;12.00;;
4885;SDS011;2457;51.788;6.136;2022-09-12T07:40:15;28.43;;;13.10;;
4885;SDS011;2457;51.788;6.136;2022-09-12T07:42:42;23.57;;;12.23;;
4885;SDS011;2457;51.788;6.136;2022-09-12T07:45:09;27.65;;;13.35;;
4885;SDS011;2457;51.788;6.136;2022-09-12T07:47:38;22.47;;;10.30;;
4885;SDS011;2457;51.788;6.136;2022-09-12T07:50:06;24.47;;;12.60;;
4885;SDS011;2457;51.788;6.136;2022-09-12T07:52:33;31.63;;;13.17;;
4885;SDS011;2457;51.788;6.136;2022-09-12T07:55:00;26.10;;;12.47;;
4885;SDS011;2457;51.788;6.136;2022-09-12T07:57:28;21.50;;;12.20;;
4885;SDS011;2457;51.788;6.136;2022-09-12T07:59:55;26.17;;;11.53;;
4885;SDS011;2457;51.788;6.136;2022-09-12T08:02:22;19.60;;;9.97;;
4885;SDS011;2457;51.788;6.136;2022-09-12T08:04:50;27.50;;;12.43;;
4885;SDS011;2457;51.788;6.136;2022-09-12T08:07:18;24.07;;;11.83;;
4885;SDS011;2457;51.788;6.136;2022-09-12T08:09:45;24.60;;;11.27;;
4885;SDS011;2457;51.788;6.136;2022-09-12T08:12:13;24.37;;;11.63;;
4885;SDS011;2457;51.788;6.136;2022-09-12T08:14:41;23.50;;;12.80;;
4885;SDS011;2457;51.788;6.136;2022-09-12T08:17:08;22.33;;;10.93;;
4885;SDS011;2457;51.788;6.136;2022-09-12T08:19:36;18.17;;;9.00;;
4885;SDS011;2457;51.788;6.136;2022-09-12T08:22:04;16.60;;;8.97;;
4885;SDS011;2457;51.788;6.136;2022-09-12T08:24:31;21.70;;;9.60;;
4885;SDS011;2457;51.788;6.136;2022-09-12T08:26:58;22.57;;;11.37;;
4885;SDS011;2457;51.788;6.136;2022-09-12T08:29:26;21.93;;;10.33;;
4885;SDS011;2457;51.788;6.136;2022-09-12T08:31:53;27.50;;;12.40;;
4885;SDS011;2457;51.788;6.136;2022-09-12T08:34:20;21.90;;;11.13;;
4885;SDS011;2457;51.788;6.136;2022-09-12T08:36:47;26.03;;;11.20;;
4885;SDS011;2457;51.788;6.136;2022-09-12T08:39:15;22.50;;;11.03;;
4885;SDS011;2457;51.788;6.136;2022-09-12T08:41:43;17.17;;;9.40;;
4885;SDS011;2457;51.788;6.136;2022-09-12T08:47:06;21.97;;;11.07;;
4885;SDS011;2457;51.788;6.136;2022-09-12T08:52:02;23.80;;;10.83;;
4885;SDS011;2457;51.788;6.136;2022-09-12T08:54:28;28.77;;;11.87;;
4885;SDS011;2457;51.788;6.136;2022-09-12T08:57:07;20.90;;;9.87;;
4885;SDS011;2457;51.788;6.136;2022-09-12T08:59:28;26.13;;;11.37;;
4885;SDS011;2457;51.788;6.136;2022-09-12T09:01:55;20.47;;;11.03;;
4885;SDS011;2457;51.788;6.136;2022-09-12T09:04:45;21.03;;;10.60;;
4885;SDS011;2457;51.788;6.136;2022-09-12T09:10:00;17.60;;;9.30;;
4885;SDS011;2457;51.788;6.136;2022-09-12T09:17:40;15.93;;;7.13;;
4885;SDS011;2457;51.788;6.136;2022-09-12T09:20:14;19.27;;;9.27;;
4885;SDS011;2457;51.788;6.136;2022-09-12T09:22:50;20.13;;;9.70;;
4885;SDS011;2457;51.788;6.136;2022-09-12T09:25:19;17.73;;;8.77;;
4885;SDS011;2457;51.788;6.136;2022-09-12T09:27:52;19.20;;;9.87;;
4885;SDS011;2457;51.788;6.136;2022-09-12T09:30:19;18.30;;;10.20;;
4885;SDS011;2457;51.788;6.136;2022-09-12T09:32:50;16.53;;;8.37;;
4885;SDS011;2457;51.788;6.136;2022-09-12T09:35:28;16.10;;;8.80;;
4885;SDS011;2457;51.788;6.136;2022-09-12T09:40:31;14.67;;;8.53;;
4885;SDS011;2457;51.788;6.136;2022-09-12T09:45:26;17.47;;;8.80;;
4885;SDS011;2457;51.788;6.136;2022-09-12T09:47:56;18.25;;;8.50;;
4885;SDS011;2457;51.788;6.136;2022-09-12T09:50:24;19.23;;;9.00;;
4885;SDS011;2457;51.788;6.136;2022-09-12T09:52:51;13.77;;;6.77;;
4885;SDS011;2457;51.788;6.136;2022-09-12T09:55:22;11.13;;;6.20;;
4885;SDS011;2457;51.788;6.136;2022-09-12T09:57:48;12.73;;;6.40;;
4885;SDS011;2457;51.788;6.136;2022-09-12T10:00:30;13.13;;;7.27;;
4885;SDS011;2457;51.788;6.136;2022-09-12T10:03:02;16.77;;;7.83;;
4885;SDS011;2457;51.788;6.136;2022-09-12T10:05:31;14.43;;;7.50;;
4885;SDS011;2457;51.788;6.136;2022-09-12T10:07:59;14.93;;;8.17;;
4885;SDS011;2457;51.788;6.136;2022-09-12T10:10:26;22.83;;;6.63;;
4885;SDS011;2457;51.788;6.136;2022-09-12T10:13:07;14.37;;;7.60;;
4885;SDS011;2457;51.788;6.136;2022-09-12T10:15:35;10.10;;;5.93;;
4885;SDS011;2457;51.788;6.136;2022-09-12T10:18:03;14.57;;;6.50;;
4885;SDS011;2457;51.788;6.136;2022-09-12T10:20:38;15.70;;;7.10;;
4885;SDS011;2457;51.788;6.136;2022-09-12T10:25:54;15.60;;;6.47;;
4885;SDS011;2457;51.788;6.136;2022-09-12T10:28:24;13.97;;;5.47;;
4885;SDS011;2457;51.788;6.136;2022-09-12T10:30:52;11.40;;;6.10;;
4885;SDS011;2457;51.788;6.136;2022-09-12T10:33:21;12.30;;;5.50;;
4885;SDS011;2457;51.788;6.136;2022-09-12T10:35:49;11.60;;;6.03;;
4885;SDS011;2457;51.788;6.136;2022-09-12T10:38:22;12.40;;;5.57;;
4885;SDS011;2457;51.788;6.136;2022-09-12T10:40:54;11.60;;;4.63;;
4885;SDS011;2457;51.788;6.136;2022-09-12T10:43:29;10.80;;;5.40;;
4885;SDS011;2457;51.788;6.136;2022-09-12T10:45:59;9.27;;;4.23;;
4885;SDS011;2457;51.788;6.136;2022-09-12T10:48:30;11.73;;;6.40;;
4885;SDS011;2457;51.788;6.136;2022-09-12T10:50:58;12.77;;;4.97;;
4885;SDS011;2457;51.788;6.136;2022-09-12T10:53:38;9.77;;;4.47;;
4885;SDS011;2457;51.788;6.136;2022-09-12T10:56:07;8.53;;;4.47;;
4885;SDS011;2457;51.788;6.136;2022-09-12T11:01:15;10.20;;;6.03;;
4885;SDS011;2457;51.788;6.136;2022-09-12T11:03:48;13.83;;;5.67;;
4885;SDS011;2457;51.788;6.136;2022-09-12T11:06:13;8.83;;;4.83;;
4885;SDS011;2457;51.788;6.136;2022-09-12T11:08:48;13.33;;;5.10;;
4885;SDS011;2457;51.788;6.136;2022-09-12T11:11:35;9.23;;;4.10;;
4885;SDS011;2457;51.788;6.136;2022-09-12T11:14:05;8.35;;;4.15;;
4885;SDS011;2457;51.788;6.136;2022-09-12T11:16:40;11.20;;;4.97;;
4885;SDS011;2457;51.788;6.136;2022-09-12T11:19:09;8.90;;;4.00;;
4885;SDS011;2457;51.788;6.136;2022-09-12T11:26:48;12.03;;;5.90;;
4885;SDS011;2457;51.788;6.136;2022-09-12T11:34:37;12.03;;;4.23;;
4885;SDS011;2457;51.788;6.136;2022-09-12T11:37:18;8.20;;;3.83;;
4885;SDS011;2457;51.788;6.136;2022-09-12T11:39:43;12.43;;;3.80;;
4885;SDS011;2457;51.788;6.136;2022-09-12T11:42:15;7.70;;;4.10;;
4885;SDS011;2457;51.788;6.136;2022-09-12T11:44:44;9.90;;;4.33;;
4885;SDS011;2457;51.788;6.136;2022-09-12T11:47:12;11.27;;;4.67;;
4885;SDS011;2457;51.788;6.136;2022-09-12T11:49:43;10.90;;;4.63;;
4885;SDS011;2457;51.788;6.136;2022-09-12T11:52:13;7.47;;;3.70;;
4885;SDS011;2457;51.788;6.136;2022-09-12T11:54:45;8.70;;;3.57;;
4885;SDS011;2457;51.788;6.136;2022-09-12T12:00:01;8.63;;;3.33;;
4885;SDS011;2457;51.788;6.136;2022-09-12T12:02:30;7.23;;;3.30;;
4885;SDS011;2457;51.788;6.136;2022-09-12T12:07:29;9.20;;;3.33;;
4885;SDS011;2457;51.788;6.136;2022-09-12T12:09:56;10.00;;;4.17;;
4885;SDS011;2457;51.788;6.136;2022-09-12T12:12:24;7.63;;;3.50;;
4885;SDS011;2457;51.788;6.136;2022-09-12T12:14:53;7.90;;;3.40;;
4885;SDS011;2457;51.788;6.136;2022-09-12T12:17:22;9.90;;;3.80;;
4885;SDS011;2457;51.788;6.136;2022-09-12T12:20:00;6.10;;;2.93;;
4885;SDS011;2457;51.788;6.136;2022-09-12T12:22:29;12.10;;;3.30;;
4885;SDS011;2457;51.788;6.136;2022-09-12T12:30:46;5.97;;;2.60;;
4885;SDS011;2457;51.788;6.136;2022-09-12T12:32:58;5.30;;;2.17;;
4885;SDS011;2457;51.788;6.136;2022-09-12T12:40:50;11.50;;;3.13;;
4885;SDS011;2457;51.788;6.136;2022-09-12T12:43:28;6.20;;;2.83;;
4885;SDS011;2457;51.788;6.136;2022-09-12T12:46:01;4.97;;;2.60;;
4885;SDS011;2457;51.788;6.136;2022-09-12T12:48:29;5.97;;;3.20;;
4885;SDS011;2457;51.788;6.136;2022-09-12T12:51:16;5.07;;;2.30;;
4885;SDS011;2457;51.788;6.136;2022-09-12T12:53:46;7.00;;;3.47;;
4885;SDS011;2457;51.788;6.136;2022-09-12T12:56:26;8.50;;;3.07;;
4885;SDS011;2457;51.788;6.136;2022-09-12T12:58:57;5.90;;;3.10;;
4885;SDS011;2457;51.788;6.136;2022-09-12T13:01:26;5.87;;;2.97;;
4885;SDS011;2457;51.788;6.136;2022-09-12T13:06:41;8.60;;;3.10;;
4885;SDS011;2457;51.788;6.136;2022-09-12T13:09:04;7.20;;;2.83;;
4885;SDS011;2457;51.788;6.136;2022-09-12T13:11:33;7.37;;;3.30;;
4885;SDS011;2457;51.788;6.136;2022-09-12T13:14:06;5.53;;;2.93;;
4885;SDS011;2457;51.788;6.136;2022-09-12T13:16:30;5.70;;;3.10;;
4885;SDS011;2457;51.788;6.136;2022-09-12T13:19:02;17.33;;;2.83;;
4885;SDS011;2457;51.788;6.136;2022-09-12T13:21:26;8.13;;;4.53;;
4885;SDS011;2457;51.788;6.136;2022-09-12T13:24:04;9.33;;;3.77;;
4885;SDS011;2457;51.788;6.136;2022-09-12T13:26:33;5.47;;;2.63;;
4885;SDS011;2457;51.788;6.136;2022-09-12T13:29:11;5.33;;;2.80;;
4885;SDS011;2457;51.788;6.136;2022-09-12T13:31:38;6.23;;;3.10;;
4885;SDS011;2457;51.788;6.136;2022-09-12T13:34:06;10.47;;;2.90;;
4885;SDS011;2457;51.788;6.136;2022-09-12T13:36:43;7.27;;;3.00;;
4885;SDS011;2457;51.788;6.136;2022-09-12T13:39:13;5.10;;;2.80;;
4885;SDS011;2457;51.788;6.136;2022-09-12T13:41:39;5.30;;;2.47;;
4885;SDS011;2457;51.788;6.136;2022-09-12T13:44:12;5.10;;;2.43;;
4885;SDS011;2457;51.788;6.136;2022-09-12T13:46:36;11.30;;;3.20;;
4885;SDS011;2457;51.788;6.136;2022-09-12T13:51:44;6.47;;;2.73;;
4885;SDS011;2457;51.788;6.136;2022-09-12T13:54:15;5.60;;;2.73;;
4885;SDS011;2457;51.788;6.136;2022-09-12T13:56:46;4.50;;;2.37;;
4885;SDS011;2457;51.788;6.136;2022-09-12T13:59:14;5.97;;;2.33;;
4885;SDS011;2457;51.788;6.136;2022-09-12T14:01:42;4.73;;;2.37;;
4885;SDS011;2457;51.788;6.136;2022-09-12T14:04:17;4.70;;;2.20;;
4885;SDS011;2457;51.788;6.136;2022-09-12T14:07:10;5.40;;;2.50;;
4885;SDS011;2457;51.788;6.136;2022-09-12T14:09:33;4.30;;;2.50;;
4885;SDS011;2457;51.788;6.136;2022-09-12T14:12:00;8.20;;;2.70;;
4885;SDS011;2457;51.788;6.136;2022-09-12T14:14:32;8.37;;;2.70;;
4885;SDS011;2457;51.788;6.136;2022-09-12T14:16:59;5.03;;;2.63;;
4885;SDS011;2457;51.788;6.136;2022-09-12T14:19:27;9.53;;;2.73;;
4885;SDS011;2457;51.788;6.136;2022-09-12T14:21:55;5.53;;;2.60;;
4885;SDS011;2457;51.788;6.136;2022-09-12T14:24:23;9.47;;;2.70;;
4885;SDS011;2457;51.788;6.136;2022-09-12T14:26:51;5.20;;;2.67;;
4885;SDS011;2457;51.788;6.136;2022-09-12T14:29:21;7.63;;;3.00;;
4885;SDS011;2457;51.788;6.136;2022-09-12T14:31:59;6.97;;;2.90;;
4885;SDS011;2457;51.788;6.136;2022-09-12T14:34:27;5.27;;;2.60;;
4885;SDS011;2457;51.788;6.136;2022-09-12T14:36:55;7.67;;;2.37;;
4885;SDS011;2457;51.788;6.136;2022-09-12T14:39:25;4.40;;;2.27;;
4885;SDS011;2457;51.788;6.136;2022-09-12T14:41:59;4.80;;;2.27;;
4885;SDS011;2457;51.788;6.136;2022-09-12T14:44:22;5.23;;;2.60;;
4885;SDS011;2457;51.788;6.136;2022-09-12T14:46:50;7.93;;;2.37;;
4885;SDS011;2457;51.788;6.136;2022-09-12T14:51:51;5.63;;;2.70;;
4885;SDS011;2457;51.788;6.136;2022-09-12T14:56:57;11.77;;;2.80;;
4885;SDS011;2457;51.788;6.136;2022-09-12T15:04:43;4.57;;;2.00;;
4885;SDS011;2457;51.788;6.136;2022-09-12T15:07:14;8.73;;;2.60;;
4885;SDS011;2457;51.788;6.136;2022-09-12T15:09:42;4.20;;;2.00;;
4885;SDS011;2457;51.788;6.136;2022-09-12T15:12:10;4.13;;;1.80;;
4885;SDS011;2457;51.788;6.136;2022-09-12T15:14:37;4.73;;;2.07;;
4885;SDS011;2457;51.788;6.136;2022-09-12T15:17:04;6.17;;;2.80;;
4885;SDS011;2457;51.788;6.136;2022-09-12T15:19:31;4.33;;;2.27;;
4885;SDS011;2457;51.788;6.136;2022-09-12T15:21:59;4.40;;;2.10;;
4885;SDS011;2457;51.788;6.136;2022-09-12T15:24:26;5.67;;;2.00;;
4885;SDS011;2457;51.788;6.136;2022-09-12T15:26:53;5.70;;;2.23;;
4885;SDS011;2457;51.788;6.136;2022-09-12T15:29:20;8.33;;;2.90;;
4885;SDS011;2457;51.788;6.136;2022-09-12T15:31:48;12.33;;;2.90;;
4885;SDS011;2457;51.788;6.136;2022-09-12T15:34:16;7.47;;;2.63;;
4885;SDS011;2457;51.788;6.136;2022-09-12T15:36:44;5.20;;;2.57;;
4885;SDS011;2457;51.788;6.136;2022-09-12T15:39:12;7.00;;;2.67;;
4885;SDS011;2457;51.788;6.136;2022-09-12T15:41:39;5.67;;;2.47;;
4885;SDS011;2457;51.788;6.136;2022-09-12T15:44:09;7.67;;;2.53;;
4885;SDS011;2457;51.788;6.136;2022-09-12T15:46:35;5.37;;;2.67;;
4885;SDS011;2457;51.788;6.136;2022-09-12T15:49:03;4.83;;;2.20;;
4885;SDS011;2457;51.788;6.136;2022-09-12T15:51:30;5.27;;;2.80;;
4885;SDS011;2457;51.788;6.136;2022-09-12T15:53:58;5.80;;;2.80;;
4885;SDS011;2457;51.788;6.136;2022-09-12T15:56:26;8.80;;;4.07;;
4885;SDS011;2457;51.788;6.136;2022-09-12T15:58:53;12.33;;;3.87;;
4885;SDS011;2457;51.788;6.136;2022-09-12T16:01:21;8.50;;;3.10;;
4885;SDS011;2457;51.788;6.136;2022-09-12T16:03:48;6.03;;;2.47;;
4885;SDS011;2457;51.788;6.136;2022-09-12T16:06:15;5.30;;;2.50;;
4885;SDS011;2457;51.788;6.136;2022-09-12T16:08:42;5.67;;;2.40;;
4885;SDS011;2457;51.788;6.136;2022-09-12T16:11:11;7.07;;;2.50;;
4885;SDS011;2457;51.788;6.136;2022-09-12T16:13:38;8.03;;;2.67;;
4885;SDS011;2457;51.788;6.136;2022-09-12T16:16:06;14.87;;;3.30;;
4885;SDS011;2457;51.788;6.136;2022-09-12T16:18:33;7.20;;;3.10;;
4885;SDS011;2457;51.788;6.136;2022-09-12T16:21:00;7.20;;;2.40;;
4885;SDS011;2457;51.788;6.136;2022-09-12T16:23:27;8.20;;;2.63;;
4885;SDS011;2457;51.788;6.136;2022-09-12T16:25:59;5.10;;;2.60;;
4885;SDS011;2457;51.788;6.136;2022-09-12T16:28:24;7.30;;;2.60;;
4885;SDS011;2457;51.788;6.136;2022-09-12T16:31:03;5.50;;;2.53;;
4885;SDS011;2457;51.788;6.136;2022-09-12T16:33:26;6.07;;;3.10;;
4885;SDS011;2457;51.788;6.136;2022-09-12T16:36:05;5.87;;;2.80;;
4885;SDS011;2457;51.788;6.136;2022-09-12T16:38:29;6.83;;;2.63;;
4885;SDS011;2457;51.788;6.136;2022-09-12T16:41:05;8.23;;;3.10;;
4885;SDS011;2457;51.788;6.136;2022-09-12T16:43:28;5.80;;;2.70;;
4885;SDS011;2457;51.788;6.136;2022-09-12T16:46:00;7.00;;;3.63;;